^^
Saratoga-Weather Station Historical Data
Daily Summary for January 4, 2021 Units:  English    Metric   Both
Daily Weekly Monthly Yearly Custom
  High: Low: Average:
Temperature: 51.4 °F 41.2 °F 45.7 °F
Dew Point: 45.9 °F 39.6 °F 42.8 °F
Humidity: 96% 80% 90%
Wind Speed: 8.9mph 0mph 0.8mph
Wind Gust: 14mph - -
Wind- - SSE
Pressure: 30 in 29.8 in -
Precipitation: 0 in    
Historical Graphs
 
 
Tabular Data for January 4, 2021
Time Temperature Dew Point Pressure Wind Wind Speed Wind Gust Humidity Rainfall Rate (Hourly) solar
00:02 46.4 °F 42.4 °F 29.8 in West 2.9 mph 9 mph 86% 0 in 0 W/m2
00:07 46.2 °F 42.3 °F 29.8 in NW 4.9 mph 13 mph 86% 0 in 0 W/m2
00:12 46.2 °F 42.3 °F 29.8 in WNW 2.9 mph 14 mph 86% 0 in 0 W/m2
00:17 46.2 °F 42.3 °F 29.8 in NW 8.9 mph 10 mph 86% 0 in 0 W/m2
00:22 46.2 °F 42.3 °F 29.8 in West 0.9 mph 14 mph 86% 0 in 0 W/m2
00:27 46 °F 42.1 °F 29.8 in WSW 2.9 mph 10 mph 86% 0 in 0 W/m2
00:32 46 °F 42.1 °F 29.8 in West 0.9 mph 8 mph 86% 0 in 0 W/m2
00:37 46 °F 42.1 °F 29.8 in WSW 6.9 mph 7 mph 86% 0 in 0 W/m2
00:42 45.9 °F 42.3 °F 29.8 in NW 2.9 mph 8 mph 87% 0 in 0 W/m2
00:47 45.9 °F 42.3 °F 29.8 in WSW 0.9 mph 4 mph 87% 0 in 0 W/m2
00:52 45.7 °F 42.1 °F 29.8 in WSW 4 mph 7 mph 87% 0 in 0 W/m2
00:57 45.7 °F 42.1 °F 29.8 in WNW 2.9 mph 3 mph 87% 0 in 0 W/m2
01:02 45.5 °F 41.9 °F 29.8 in WSW 4 mph 9 mph 87% 0 in 0 W/m2
01:07 45.3 °F 41.7 °F 29.8 in WSW 6.9 mph 7 mph 87% 0 in 0 W/m2
01:12 45.1 °F 41.5 °F 29.8 in West 2.9 mph 9 mph 87% 0 in 0 W/m2
01:17 45.1 °F 41.5 °F 29.8 in WSW 2.9 mph 9 mph 87% 0 in 0 W/m2
01:22 45.3 °F 41.4 °F 29.8 in WNW 4 mph 6 mph 86% 0 in 0 W/m2
01:27 45.3 °F 41.4 °F 29.8 in WSW 2 mph 8 mph 86% 0 in 0 W/m2
01:32 45.5 °F 41.5 °F 29.8 in WSW 0.9 mph 6 mph 86% 0 in 0 W/m2
01:37 45.5 °F 41.5 °F 29.8 in NW 2.9 mph 3 mph 86% 0 in 0 W/m2
01:42 45.5 °F 41.2 °F 29.8 in Calm   2 mph 85% 0 in 0 W/m2
01:47 45.5 °F 41.5 °F 29.8 in NW 2 mph 4 mph 86% 0 in 0 W/m2
01:52 45.3 °F 41.4 °F 29.8 in Calm   3 mph 86% 0 in 0 W/m2
01:57 45.3 °F 41.4 °F 29.8 in WNW 0.9 mph 2 mph 86% 0 in 0 W/m2
02:02 45.3 °F 41.4 °F 29.8 in West 0.9 mph 6 mph 86% 0 in 0 W/m2
02:07 45.3 °F 41.7 °F 29.8 in Calm   1 mph 87% 0 in 0 W/m2
02:12 45.1 °F 41.5 °F 29.8 in NNW 2 mph 2 mph 87% 0 in 0 W/m2
02:17 45.1 °F 41.5 °F 29.9 in Calm   3 mph 87% 0 in 0 W/m2
02:22 45 °F 41.5 °F 29.9 in WSW 2 mph 2 mph 88% 0 in 0 W/m2
02:27 44.8 °F 41.4 °F 29.9 in Calm   1 mph 88% 0 in 0 W/m2
02:33 44.4 °F 41.2 °F 29.9 in West 2.9 mph 3 mph 88% 0 in 0 W/m2
02:38 44.2 °F 41.2 °F 29.9 in Calm   2 mph 89% 0 in 0 W/m2
02:43 44.2 °F 41.2 °F 29.9 in SSW 0.9 mph 2 mph 89% 0 in 0 W/m2
02:48 44.2 °F 41.5 °F 29.9 in South 0.9 mph 2 mph 90% 0 in 0 W/m2
02:53 44.1 °F 41.4 °F 29.9 in Calm     90% 0 in 0 W/m2
02:58 44.1 °F 41.4 °F 29.9 in SSE 0.9 mph 4 mph 90% 0 in 0 W/m2
03:03 44.1 °F 41.4 °F 29.9 in West 2 mph 4 mph 90% 0 in 0 W/m2
03:08 44.1 °F 41.4 °F 29.9 in WNW 2 mph 7 mph 90% 0 in 0 W/m2
03:13 44.1 °F 41.4 °F 29.9 in SW 0.9 mph 2 mph 90% 0 in 0 W/m2
03:18 43.9 °F 41.2 °F 29.9 in Calm   2 mph 90% 0 in 0 W/m2
03:23 43.9 °F 41.2 °F 29.9 in Calm   2 mph 90% 0 in 0 W/m2
03:28 43.7 °F 41 °F 29.9 in South 2 mph 2 mph 90% 0 in 0 W/m2
03:33 43.7 °F 41.2 °F 29.9 in Calm   2 mph 91% 0 in 0 W/m2
03:38 43.9 °F 41.4 °F 29.9 in SE 2 mph 2 mph 91% 0 in 0 W/m2
03:43 43.9 °F 41.4 °F 29.9 in WNW 2 mph 4 mph 91% 0 in 0 W/m2
03:48 43.9 °F 41.4 °F 29.9 in Calm   1 mph 91% 0 in 0 W/m2
03:53 43.9 °F 41.4 °F 29.9 in Calm   1 mph 91% 0 in 0 W/m2
03:58 43.9 °F 41.4 °F 29.9 in Calm     91% 0 in 0 W/m2
04:03 43.7 °F 41.2 °F 29.9 in Calm     91% 0 in 0 W/m2
04:08 43.9 °F 41.4 °F 29.9 in WNW 0.9 mph 2 mph 91% 0 in 0 W/m2
04:13 43.9 °F 41.4 °F 29.9 in Calm   7 mph 91% 0 in 0 W/m2
04:18 43.9 °F 41.4 °F 29.9 in North 2 mph 2 mph 91% 0 in 0 W/m2
04:23 43.9 °F 41.4 °F 29.9 in SSW 0.9 mph 7 mph 91% 0 in 0 W/m2
04:28 43.7 °F 41 °F 29.9 in Calm   2 mph 90% 0 in 0 W/m2
04:33 43.5 °F 41 °F 29.9 in Calm   1 mph 91% 0 in 0 W/m2
04:38 43.3 °F 40.8 °F 29.9 in Calm   1 mph 91% 0 in 0 W/m2
04:43 43.3 °F 40.8 °F 29.9 in Calm     91% 0 in 0 W/m2
04:48 43.2 °F 40.6 °F 29.9 in SW 0.9 mph 2 mph 91% 0 in 0 W/m2
04:53 43.2 °F 41 °F 29.9 in Calm   2 mph 92% 0 in 0 W/m2
04:58 43.2 °F 41 °F 29.9 in West 2 mph 3 mph 92% 0 in 0 W/m2
05:03 43.2 °F 41 °F 29.9 in Calm   3 mph 92% 0 in 0 W/m2
05:08 43.2 °F 41 °F 29.9 in Calm   4 mph 92% 0 in 0 W/m2
05:13 43.2 °F 41 °F 29.9 in SW 0.9 mph 3 mph 92% 0 in 0 W/m2
05:18 43 °F 40.8 °F 29.9 in Calm   4 mph 92% 0 in 0 W/m2
05:23 43 °F 40.8 °F 29.9 in Calm     92% 0 in 0 W/m2
05:28 42.8 °F 40.6 °F 29.9 in Calm   2 mph 92% 0 in 0 W/m2
05:33 42.6 °F 40.5 °F 29.9 in Calm   1 mph 92% 0 in 0 W/m2
05:38 42.4 °F 40.3 °F 29.9 in Calm   2 mph 92% 0 in 0 W/m2
05:43 42.3 °F 40.1 °F 29.9 in ENE 2 mph 2 mph 92% 0 in 0 W/m2
05:48 42.3 °F 40.5 °F 29.9 in Calm   2 mph 93% 0 in 0 W/m2
05:53 42.1 °F 40.3 °F 29.9 in SE 0.9 mph 2 mph 93% 0 in 0 W/m2
05:58 41.9 °F 40.1 °F 29.9 in Calm   2 mph 93% 0 in 0 W/m2
06:03 41.7 °F 39.9 °F 29.9 in Calm   1 mph 93% 0 in 0 W/m2
06:08 41.5 °F 39.7 °F 29.9 in SSE 0.9 mph 2 mph 93% 0 in 0 W/m2
06:13 41.7 °F 40.1 °F 29.9 in East 0.9 mph 2 mph 94% 0 in 0 W/m2
06:18 41.5 °F 39.9 °F 29.9 in Calm     94% 0 in 0 W/m2
06:23 41.4 °F 39.7 °F 29.9 in Calm   2 mph 94% 0 in 0 W/m2
06:28 41.2 °F 39.6 °F 29.9 in Calm   1 mph 94% 0 in 0 W/m2
06:33 41.4 °F 39.7 °F 29.9 in SW 0.9 mph 3 mph 94% 0 in 0 W/m2
06:38 41.4 °F 40.1 °F 29.9 in Calm   2 mph 95% 0 in 0 W/m2
06:43 41.4 °F 40.1 °F 29.9 in Calm   3 mph 95% 0 in 0 W/m2
06:48 41.4 °F 40.1 °F 29.9 in WNW 0.9 mph 2 mph 95% 0 in 0 W/m2
06:53 41.7 °F 40.5 °F 29.9 in WSW 2 mph 8 mph 95% 0 in 0 W/m2
06:58 41.7 °F 40.5 °F 29.9 in Calm   4 mph 95% 0 in 0 W/m2
07:03 42.1 °F 40.8 °F 29.9 in Calm   8 mph 95% 0 in 0 W/m2
07:08 42.1 °F 40.8 °F 29.9 in West 0.9 mph 2 mph 95% 0 in 0 W/m2
07:13 42.3 °F 41 °F 29.9 in Calm   3 mph 95% 0 in 0 W/m2
07:18 42.3 °F 41 °F 29.9 in Calm     95% 0 in 0 W/m2
07:23 42.3 °F 41 °F 29.9 in Calm     95% 0 in 0 W/m2
07:28 42.3 °F 41 °F 29.9 in WNW 0.9 mph 3 mph 95% 0 in 0 W/m2
07:33 42.4 °F 41.2 °F 29.9 in Calm     95% 0 in 0 W/m2
07:38 42.4 °F 41.2 °F 29.9 in Calm   1 mph 95% 0 in 0 W/m2
07:43 42.4 °F 41.2 °F 29.9 in Calm     95% 0 in 0 W/m2
07:48 42.3 °F 40.6 °F 29.9 in Calm     94% 0 in 0 W/m2
07:53 42.1 °F 40.5 °F 29.9 in Calm     94% 0 in 0 W/m2
07:58 42.1 °F 40.8 °F 29.9 in Calm     95% 0 in 0 W/m2
08:03 42.1 °F 40.8 °F 29.9 in Calm     95% 0 in 0 W/m2
08:08 41.9 °F 40.6 °F 29.9 in Calm     95% 0 in 9 W/m2
08:13 41.7 °F 40.5 °F 29.9 in Calm     95% 0 in 9 W/m2
08:18 41.7 °F 40.5 °F 29.9 in Calm     95% 0 in 12 W/m2
08:23 41.7 °F 40.5 °F 29.9 in Calm     95% 0 in 18 W/m2
08:28 41.7 °F 40.5 °F 29.9 in Calm     95% 0 in 19 W/m2
08:33 41.9 °F 40.6 °F 29.9 in Calm     95% 0 in 26 W/m2
08:38 41.9 °F 40.6 °F 29.9 in Calm     95% 0 in 25 W/m2
08:43 42.1 °F 40.8 °F 29.9 in Calm     95% 0 in 26 W/m2
08:48 42.1 °F 40.8 °F 29.9 in Calm     95% 0 in 32 W/m2
08:53 42.1 °F 40.8 °F 29.9 in Calm     95% 0 in 30 W/m2
08:58 41.9 °F 40.6 °F 29.9 in Calm     95% 0 in 46 W/m2
09:03 41.9 °F 40.6 °F 29.9 in Calm     95% 0 in 46 W/m2
09:08 41.7 °F 40.5 °F 29.9 in Calm     95% 0 in 46 W/m2
09:13 41.7 °F 40.6 °F 29.9 in Calm     96% 0 in 47 W/m2
09:18 41.7 °F 40.6 °F 29.9 in Calm     96% 0 in 62 W/m2
09:23 41.7 °F 40.6 °F 29.9 in Calm     96% 0 in 74 W/m2
09:28 42.1 °F 41 °F 29.9 in North 0.9 mph 1 mph 96% 0 in 118 W/m2
09:33 42.3 °F 41.2 °F 29.9 in ENE 2 mph 2 mph 96% 0 in 109 W/m2
09:38 42.4 °F 41.4 °F 30 in ENE 0.9 mph 3 mph 96% 0 in 81 W/m2
09:43 42.6 °F 41.5 °F 30 in ENE 0.9 mph 2 mph 96% 0 in 79 W/m2
09:48 42.6 °F 41.5 °F 30 in Calm   1 mph 96% 0 in 65 W/m2
09:53 43 °F 41.9 °F 30 in Calm   2 mph 96% 0 in 86 W/m2
09:58 43 °F 41.9 °F 30 in Calm   1 mph 96% 0 in 83 W/m2
10:03 43.2 °F 42.1 °F 30 in Calm   2 mph 96% 0 in 91 W/m2
10:08 43.3 °F 42.1 °F 30 in Calm   2 mph 95% 0 in 90 W/m2
10:13 43.7 °F 42.4 °F 30 in ENE 0.9 mph 1 mph 95% 0 in 109 W/m2
10:18 43.9 °F 42.6 °F 30 in ESE 2 mph 2 mph 95% 0 in 137 W/m2
10:23 44.2 °F 43 °F 30 in Calm   2 mph 95% 0 in 114 W/m2
10:29 44.6 °F 43.3 °F 30 in East 2 mph 3 mph 95% 0 in 142 W/m2
10:34 45 °F 43.7 °F 30 in ENE 2 mph 2 mph 95% 0 in 142 W/m2
10:39 45.1 °F 43.5 °F 30 in ENE 0.9 mph 2 mph 94% 0 in 139 W/m2
10:44 45.3 °F 43.7 °F 30 in ENE 2 mph 2 mph 94% 0 in 153 W/m2
10:49 45.7 °F 43.7 °F 30 in ENE 0.9 mph 2 mph 93% 0 in 144 W/m2
10:54 45.9 °F 43.9 °F 30 in ESE 0.9 mph 2 mph 93% 0 in 144 W/m2
10:59 46 °F 44.1 °F 30 in Calm   2 mph 93% 0 in 135 W/m2
11:04 46.2 °F 44.2 °F 30 in East 2 mph 3 mph 93% 0 in 162 W/m2
11:09 46.4 °F 44.4 °F 30 in East 0.9 mph 1 mph 93% 0 in 202 W/m2
11:14 46.6 °F 44.4 °F 30 in Calm   3 mph 92% 0 in 188 W/m2
11:19 46.9 °F 44.8 °F 30 in Calm   1 mph 92% 0 in 230 W/m2
11:24 47.3 °F 44.8 °F 30 in ENE 2 mph 3 mph 91% 0 in 188 W/m2
11:29 47.5 °F 45 °F 30 in ESE 2 mph 3 mph 91% 0 in 246 W/m2
11:34 47.7 °F 45 °F 30 in East 0.9 mph 3 mph 90% 0 in 142 W/m2
11:39 47.8 °F 44.8 °F 30 in East 0.9 mph 2 mph 89% 0 in 125 W/m2
11:44 47.8 °F 44.8 °F 30 in East 0.9 mph 3 mph 89% 0 in 118 W/m2
11:49 47.8 °F 44.8 °F 30 in Calm     89% 0 in 114 W/m2
11:54 47.8 °F 44.4 °F 30 in Calm   1 mph 88% 0 in 113 W/m2
11:59 48 °F 44.6 °F 30 in Calm   1 mph 88% 0 in 127 W/m2
12:04 48.2 °F 44.8 °F 30 in SSE 2 mph 3 mph 88% 0 in 137 W/m2
12:09 48.4 °F 45 °F 30 in East 0.9 mph 2 mph 88% 0 in 141 W/m2
12:14 48.6 °F 45.1 °F 30 in Calm   2 mph 88% 0 in 178 W/m2
12:19 48.6 °F 44.8 °F 30 in NE 0.9 mph 2 mph 87% 0 in 176 W/m2
12:24 48.7 °F 45 °F 30 in ENE 0.9 mph 3 mph 87% 0 in 197 W/m2
12:29 48.7 °F 45 °F 30 in Calm   1 mph 87% 0 in 178 W/m2
12:34 48.9 °F 45.1 °F 30 in Calm   3 mph 87% 0 in 162 W/m2
12:39 49.1 °F 45.3 °F 30 in Calm   2 mph 87% 0 in 158 W/m2
12:44 49.3 °F 45.3 °F 30 in NNE 2 mph 4 mph 86% 0 in 172 W/m2
12:49 49.3 °F 45.3 °F 30 in ENE 0.9 mph 2 mph 86% 0 in 163 W/m2
12:54 49.5 °F 45.5 °F 30 in ENE 2.9 mph 4 mph 86% 0 in 179 W/m2
12:59 49.6 °F 45.7 °F 29.9 in Calm     86% 0 in 190 W/m2
13:04 49.8 °F 45.5 °F 29.9 in NE 2.9 mph 4 mph 85% 0 in 171 W/m2
13:09 49.8 °F 45.5 °F 29.9 in ENE 2 mph 4 mph 85% 0 in 142 W/m2
13:14 49.8 °F 45.5 °F 29.9 in ENE 0.9 mph 3 mph 85% 0 in 139 W/m2
13:19 50 °F 45.3 °F 29.9 in East 0.9 mph 3 mph 84% 0 in 155 W/m2
13:24 50.2 °F 45.9 °F 29.9 in Calm   1 mph 85% 0 in 134 W/m2
13:29 50.2 °F 45.5 °F 29.9 in ENE 2 mph 5 mph 84% 0 in 171 W/m2
13:34 50.4 °F 45.7 °F 29.9 in ENE 0.9 mph 3 mph 84% 0 in 186 W/m2
13:39 50.4 °F 45.7 °F 29.9 in East 0.9 mph 2 mph 84% 0 in 160 W/m2
13:44 50.4 °F 45.3 °F 29.9 in East 2 mph 2 mph 83% 0 in 146 W/m2
13:49 50.5 °F 45.5 °F 29.9 in East 0.9 mph 4 mph 83% 0 in 149 W/m2
13:54 50.5 °F 45.3 °F 29.9 in East 2.9 mph 6 mph 82% 0 in 181 W/m2
13:59 50.5 °F 45.3 °F 29.9 in East 0.9 mph 2 mph 82% 0 in 193 W/m2
14:04 50.7 °F 45.7 °F 29.9 in East 2.9 mph 3 mph 83% 0 in 197 W/m2
14:09 50.9 °F 45.7 °F 29.9 in SE 0.9 mph 1 mph 82% 0 in 171 W/m2
14:14 51.1 °F 45.5 °F 29.9 in East 2.9 mph 4 mph 81% 0 in 139 W/m2
14:19 51.1 °F 45.5 °F 29.9 in ENE 0.9 mph 4 mph 81% 0 in 153 W/m2
14:24 51.1 °F 45.1 °F 29.9 in SE 2 mph 4 mph 80% 0 in 188 W/m2
14:29 51.1 °F 45.5 °F 29.9 in NE 0.9 mph 3 mph 81% 0 in 197 W/m2
14:34 51.3 °F 45.7 °F 29.9 in East 2 mph 2 mph 81% 0 in 165 W/m2
14:39 51.4 °F 45.5 °F 29.9 in ESE 2 mph 4 mph 80% 0 in 141 W/m2
14:44 51.4 °F 45.5 °F 29.9 in SE 2 mph 4 mph 80% 0 in 135 W/m2
14:49 51.3 °F 45.3 °F 29.9 in NE 0.9 mph 3 mph 80% 0 in 128 W/m2
14:54 51.3 °F 45.7 °F 29.9 in Calm   4 mph 81% 0 in 120 W/m2
14:59 51.3 °F 45.7 °F 29.9 in ESE 0.9 mph 3 mph 81% 0 in 113 W/m2
15:04 51.1 °F 45.5 °F 29.9 in NE 0.9 mph 4 mph 81% 0 in 109 W/m2
15:09 51.1 °F 45.5 °F 29.9 in Calm   2 mph 81% 0 in 95 W/m2
15:14 50.9 °F 45.3 °F 29.9 in East 2 mph 2 mph 81% 0 in 84 W/m2
15:19 50.9 °F 45.3 °F 29.9 in ESE 0.9 mph 2 mph 81% 0 in 79 W/m2
15:24 50.7 °F 44.8 °F 29.9 in ESE 2 mph 2 mph 80% 0 in 84 W/m2
15:29 50.7 °F 44.8 °F 29.9 in East 0.9 mph 3 mph 80% 0 in 91 W/m2
15:34 50.5 °F 44.6 °F 29.9 in Calm   2 mph 80% 0 in 79 W/m2
15:39 50.5 °F 44.6 °F 29.9 in SE 0.9 mph 3 mph 80% 0 in 88 W/m2
15:44 50.5 °F 45 °F 29.9 in ESE 0.9 mph 2 mph 81% 0 in 84 W/m2
15:49 50.5 °F 45 °F 29.9 in ESE 0.9 mph 3 mph 81% 0 in 67 W/m2
15:54 50.5 °F 45 °F 29.9 in ESE 0.9 mph 3 mph 81% 0 in 58 W/m2
15:59 50.5 °F 45.3 °F 29.9 in East 2.9 mph 3 mph 82% 0 in 69 W/m2
16:04 50.4 °F 45.1 °F 29.9 in SE 2.9 mph 3 mph 82% 0 in 62 W/m2
16:09 50.4 °F 45.1 °F 29.9 in ESE 2 mph 4 mph 82% 0 in 53 W/m2
16:14 50.2 °F 45 °F 29.9 in ESE 0.9 mph 4 mph 82% 0 in 63 W/m2
16:19 50.2 °F 45 °F 29.9 in ESE 0.9 mph 2 mph 82% 0 in 58 W/m2
16:24 50.2 °F 45 °F 29.9 in East 2.9 mph 4 mph 82% 0 in 54 W/m2
16:29 50.2 °F 45 °F 29.9 in Calm   1 mph 82% 0 in 54 W/m2
16:34 50.2 °F 45.1 °F 29.9 in Calm   4 mph 83% 0 in 49 W/m2
16:39 50 °F 44.8 °F 29.9 in East 0.9 mph 4 mph 82% 0 in 39 W/m2
16:44 50 °F 45 °F 29.9 in Calm   2 mph 83% 0 in 35 W/m2
16:49 49.8 °F 44.8 °F 29.9 in Calm   2 mph 83% 0 in 30 W/m2
16:54 49.8 °F 44.8 °F 29.9 in East 2 mph 3 mph 83% 0 in 26 W/m2
16:59 49.6 °F 44.8 °F 29.9 in East 0.9 mph 2 mph 83% 0 in 18 W/m2
17:04 49.6 °F 45 °F 29.9 in ESE 0.9 mph 4 mph 84% 0 in 19 W/m2
17:09 49.5 °F 44.8 °F 29.9 in ESE 2 mph 4 mph 84% 0 in 16 W/m2
17:14 49.3 °F 44.6 °F 29.9 in East 2 mph 3 mph 84% 0 in 12 W/m2
17:19 49.3 °F 44.6 °F 29.9 in Calm   2 mph 84% 0 in 9 W/m2
17:24 49.1 °F 44.8 °F 29.9 in Calm   1 mph 85% 0 in 5 W/m2
17:29 48.7 °F 44.4 °F 29.9 in ENE 0.9 mph 4 mph 85% 0 in 5 W/m2
17:34 48.7 °F 44.4 °F 29.9 in SW 0.9 mph 3 mph 85% 0 in 0 W/m2
17:39 48.6 °F 44.6 °F 29.9 in ESE 2.9 mph 4 mph 86% 0 in 0 W/m2
17:44 48.4 °F 44.4 °F 29.9 in ESE 2 mph 3 mph 86% 0 in 0 W/m2
17:49 48.4 °F 44.4 °F 29.9 in Calm   1 mph 86% 0 in 0 W/m2
17:54 48 °F 44.1 °F 29.9 in ESE 2 mph 4 mph 86% 0 in 0 W/m2
17:59 48 °F 44.1 °F 29.9 in ESE 2 mph 2 mph 86% 0 in 0 W/m2
18:04 48 °F 44.1 °F 29.9 in East 0.9 mph 4 mph 86% 0 in 0 W/m2
18:09 48 °F 44.1 °F 29.9 in ESE 0.9 mph 2 mph 86% 0 in 0 W/m2
18:14 47.8 °F 44.2 °F 29.9 in Calm   1 mph 87% 0 in 0 W/m2
18:20 47.8 °F 44.2 °F 29.9 in Calm     87% 0 in 0 W/m2
18:25 47.7 °F 44.2 °F 29.9 in Calm     88% 0 in 0 W/m2
18:30 47.5 °F 44.1 °F 29.9 in ESE 0.9 mph 2 mph 88% 0 in 0 W/m2
18:35 47.1 °F 43.7 °F 29.9 in Calm     88% 0 in 0 W/m2
18:40 47.1 °F 44.1 °F 29.9 in Calm   2 mph 89% 0 in 0 W/m2
18:45 46.9 °F 43.9 °F 29.9 in Calm     89% 0 in 0 W/m2
18:50 46.8 °F 43.7 °F 29.9 in Calm   1 mph 89% 0 in 0 W/m2
18:55 46.8 °F 44.1 °F 29.9 in Calm     90% 0 in 0 W/m2
19:00 46.6 °F 43.9 °F 29.9 in Calm     90% 0 in 0 W/m2
19:05 46.4 °F 43.7 °F 29.9 in Calm     90% 0 in 0 W/m2
19:10 46.2 °F 43.5 °F 29.9 in Calm     90% 0 in 0 W/m2
19:15 46 °F 43.3 °F 29.9 in Calm     90% 0 in 0 W/m2
19:20 45.9 °F 43.3 °F 29.9 in Calm     91% 0 in 0 W/m2
19:25 45.9 °F 43.3 °F 29.9 in Calm     91% 0 in 0 W/m2
19:30 45.7 °F 43.2 °F 29.9 in Calm     91% 0 in 0 W/m2
19:35 45.5 °F 43 °F 29.9 in Calm     91% 0 in 0 W/m2
19:40 45.3 °F 42.8 °F 29.9 in Calm     91% 0 in 0 W/m2
19:45 45.3 °F 43.2 °F 29.9 in Calm     92% 0 in 0 W/m2
19:50 45.1 °F 43 °F 29.9 in Calm     92% 0 in 0 W/m2
19:55 45.1 °F 43 °F 29.9 in Calm     92% 0 in 0 W/m2
20:00 45.1 °F 43 °F 29.9 in Calm     92% 0 in 0 W/m2
20:05 45 °F 42.8 °F 29.9 in Calm     92% 0 in 0 W/m2
20:10 45 °F 43 °F 29.9 in Calm     93% 0 in 0 W/m2
20:15 45 °F 43 °F 29.9 in Calm     93% 0 in 0 W/m2
20:20 45 °F 43 °F 29.9 in Calm     93% 0 in 0 W/m2
20:25 45 °F 43 °F 29.9 in Calm     93% 0 in 0 W/m2
20:30 44.8 °F 42.8 °F 29.9 in Calm     93% 0 in 0 W/m2
20:35 44.8 °F 42.8 °F 29.9 in Calm     93% 0 in 0 W/m2
20:40 44.8 °F 42.8 °F 29.9 in Calm     93% 0 in 0 W/m2
20:45 44.8 °F 42.8 °F 29.9 in Calm     93% 0 in 0 W/m2
20:50 44.8 °F 43.2 °F 29.9 in Calm     94% 0 in 0 W/m2
20:55 45 °F 43.3 °F 29.9 in Calm     94% 0 in 0 W/m2
21:00 45 °F 43.3 °F 29.9 in Calm     94% 0 in 0 W/m2
21:05 45 °F 43.3 °F 29.9 in Calm     94% 0 in 0 W/m2
21:11 45 °F 43.3 °F 29.9 in Calm     94% 0 in 0 W/m2
21:16 45 °F 43.3 °F 29.9 in Calm     94% 0 in 0 W/m2
21:21 45 °F 43.3 °F 29.9 in Calm     94% 0 in 0 W/m2
21:26 45 °F 43.3 °F 29.9 in Calm     94% 0 in 0 W/m2
21:31 45 °F 43.3 °F 29.9 in Calm     94% 0 in 0 W/m2
21:36 45 °F 43.3 °F 29.9 in Calm     94% 0 in 0 W/m2
21:41 44.8 °F 43.2 °F 29.9 in Calm     94% 0 in 0 W/m2
21:46 44.8 °F 43.2 °F 29.9 in Calm     94% 0 in 0 W/m2
21:51 44.8 °F 43.2 °F 29.9 in Calm     94% 0 in 0 W/m2
21:56 44.6 °F 43 °F 29.9 in Calm     94% 0 in 0 W/m2
22:01 44.6 °F 43 °F 29.9 in Calm     94% 0 in 0 W/m2
22:06 44.4 °F 42.8 °F 29.9 in Calm     94% 0 in 0 W/m2
22:11 44.4 °F 42.8 °F 29.9 in Calm     94% 0 in 0 W/m2
22:16 44.2 °F 42.6 °F 29.9 in Calm     94% 0 in 0 W/m2
22:21 44.2 °F 42.6 °F 29.9 in Calm     94% 0 in 0 W/m2
22:26 44.1 °F 42.4 °F 29.9 in Calm     94% 0 in 0 W/m2
22:31 44.1 °F 42.4 °F 29.9 in Calm     94% 0 in 0 W/m2
22:36 43.9 °F 42.3 °F 29.9 in Calm     94% 0 in 0 W/m2
22:41 43.9 °F 42.3 °F 29.9 in Calm     94% 0 in 0 W/m2
22:46 43.7 °F 42.1 °F 29.9 in Calm     94% 0 in 0 W/m2
22:51 43.7 °F 42.1 °F 29.9 in Calm     94% 0 in 0 W/m2
22:56 43.5 °F 41.9 °F 29.9 in Calm     94% 0 in 0 W/m2
23:01 43.5 °F 41.9 °F 29.9 in Calm     94% 0 in 0 W/m2
23:06 43.5 °F 41.9 °F 29.9 in Calm     94% 0 in 0 W/m2
23:11 43.5 °F 41.9 °F 29.9 in Calm   1 mph 94% 0 in 0 W/m2
23:16 43.7 °F 42.1 °F 29.9 in Calm   1 mph 94% 0 in 0 W/m2
23:21 43.7 °F 42.1 °F 29.9 in Calm     94% 0 in 0 W/m2
23:26 43.5 °F 41.9 °F 29.9 in Calm   1 mph 94% 0 in 0 W/m2
23:31 43.5 °F 41.9 °F 29.9 in Calm     94% 0 in 0 W/m2
23:36 43.5 °F 41.9 °F 29.9 in Calm     94% 0 in 0 W/m2
23:41 43.3 °F 41.7 °F 29.9 in Calm     94% 0 in 0 W/m2
23:46 43.3 °F 41.7 °F 29.9 in Calm     94% 0 in 0 W/m2
23:51 43.2 °F 41.5 °F 29.9 in Calm     94% 0 in 0 W/m2
23:56 43 °F 41.4 °F 29.9 in Calm     94% 0 in 0 W/m2
Juneau County Weather
Compliments of Weather Underground - 4 mb